sensor_id;sensor_type;location;lat;lon;timestamp;P1;durP1;ratioP1;P2;durP2;ratioP2
10529;SDS011;5313;48.834;9.228;2023-07-29T00:00:46;4.17;;;3.07;;
10529;SDS011;5313;48.834;9.228;2023-07-29T00:03:12;5.40;;;3.00;;
10529;SDS011;5313;48.834;9.228;2023-07-29T00:05:37;6.83;;;2.87;;
10529;SDS011;5313;48.834;9.228;2023-07-29T00:08:03;6.53;;;2.90;;
10529;SDS011;5313;48.834;9.228;2023-07-29T00:10:31;10.67;;;2.83;;
10529;SDS011;5313;48.834;9.228;2023-07-29T00:12:57;3.80;;;2.60;;
10529;SDS011;5313;48.834;9.228;2023-07-29T00:15:22;5.23;;;2.70;;
10529;SDS011;5313;48.834;9.228;2023-07-29T00:17:48;5.07;;;2.60;;
10529;SDS011;5313;48.834;9.228;2023-07-29T00:20:13;3.00;;;2.60;;
10529;SDS011;5313;48.834;9.228;2023-07-29T00:22:39;4.13;;;2.87;;
10529;SDS011;5313;48.834;9.228;2023-07-29T00:25:05;3.50;;;2.50;;
10529;SDS011;5313;48.834;9.228;2023-07-29T00:27:30;3.07;;;2.17;;
10529;SDS011;5313;48.834;9.228;2023-07-29T00:29:56;4.90;;;2.70;;
10529;SDS011;5313;48.834;9.228;2023-07-29T00:32:21;6.10;;;2.37;;
10529;SDS011;5313;48.834;9.228;2023-07-29T00:34:47;3.33;;;2.10;;
10529;SDS011;5313;48.834;9.228;2023-07-29T00:37:12;3.83;;;2.03;;
10529;SDS011;5313;48.834;9.228;2023-07-29T00:39:38;4.53;;;3.03;;
10529;SDS011;5313;48.834;9.228;2023-07-29T00:42:04;4.60;;;2.60;;
10529;SDS011;5313;48.834;9.228;2023-07-29T00:44:30;2.50;;;2.23;;
10529;SDS011;5313;48.834;9.228;2023-07-29T00:46:56;2.73;;;2.17;;
10529;SDS011;5313;48.834;9.228;2023-07-29T00:49:22;2.80;;;2.37;;
10529;SDS011;5313;48.834;9.228;2023-07-29T00:51:48;3.13;;;2.33;;
10529;SDS011;5313;48.834;9.228;2023-07-29T00:54:14;5.07;;;2.20;;
10529;SDS011;5313;48.834;9.228;2023-07-29T00:56:39;2.90;;;2.37;;
10529;SDS011;5313;48.834;9.228;2023-07-29T00:59:05;3.10;;;2.03;;
10529;SDS011;5313;48.834;9.228;2023-07-29T01:01:31;2.67;;;2.20;;
10529;SDS011;5313;48.834;9.228;2023-07-29T01:03:57;2.30;;;2.10;;
10529;SDS011;5313;48.834;9.228;2023-07-29T01:06:44;2.60;;;1.80;;
10529;SDS011;5313;48.834;9.228;2023-07-29T01:09:33;3.43;;;2.10;;
10529;SDS011;5313;48.834;9.228;2023-07-29T01:12:22;2.47;;;2.03;;
10529;SDS011;5313;48.834;9.228;2023-07-29T01:15:01;2.90;;;1.97;;
10529;SDS011;5313;48.834;9.228;2023-07-29T01:17:49;3.97;;;1.90;;
10529;SDS011;5313;48.834;9.228;2023-07-29T01:20:19;2.60;;;2.00;;
10529;SDS011;5313;48.834;9.228;2023-07-29T01:22:45;2.43;;;1.57;;
10529;SDS011;5313;48.834;9.228;2023-07-29T01:25:14;2.20;;;1.80;;
10529;SDS011;5313;48.834;9.228;2023-07-29T01:27:41;2.10;;;1.67;;
10529;SDS011;5313;48.834;9.228;2023-07-29T01:30:08;2.53;;;1.70;;
10529;SDS011;5313;48.834;9.228;2023-07-29T01:35:22;2.17;;;1.67;;
10529;SDS011;5313;48.834;9.228;2023-07-29T01:38:16;2.57;;;1.63;;
10529;SDS011;5313;48.834;9.228;2023-07-29T01:40:42;1.83;;;1.63;;
10529;SDS011;5313;48.834;9.228;2023-07-29T01:43:08;2.83;;;1.50;;
10529;SDS011;5313;48.834;9.228;2023-07-29T01:45:35;1.30;;;1.20;;
10529;SDS011;5313;48.834;9.228;2023-07-29T01:48:04;3.67;;;1.70;;
10529;SDS011;5313;48.834;9.228;2023-07-29T01:50:30;1.63;;;1.30;;
10529;SDS011;5313;48.834;9.228;2023-07-29T01:52:57;1.73;;;1.60;;
10529;SDS011;5313;48.834;9.228;2023-07-29T01:55:23;2.43;;;1.60;;
10529;SDS011;5313;48.834;9.228;2023-07-29T01:57:48;2.30;;;1.60;;
10529;SDS011;5313;48.834;9.228;2023-07-29T02:00:14;2.50;;;1.87;;
10529;SDS011;5313;48.834;9.228;2023-07-29T02:02:40;1.70;;;1.40;;
10529;SDS011;5313;48.834;9.228;2023-07-29T02:05:06;3.07;;;1.60;;
10529;SDS011;5313;48.834;9.228;2023-07-29T02:07:32;3.03;;;1.90;;
10529;SDS011;5313;48.834;9.228;2023-07-29T02:09:57;1.87;;;1.57;;
10529;SDS011;5313;48.834;9.228;2023-07-29T02:12:23;2.13;;;1.50;;
10529;SDS011;5313;48.834;9.228;2023-07-29T02:14:49;4.07;;;1.67;;
10529;SDS011;5313;48.834;9.228;2023-07-29T02:17:15;3.73;;;1.70;;
10529;SDS011;5313;48.834;9.228;2023-07-29T02:19:40;3.03;;;1.67;;
10529;SDS011;5313;48.834;9.228;2023-07-29T02:22:05;4.40;;;1.57;;
10529;SDS011;5313;48.834;9.228;2023-07-29T02:24:31;1.37;;;1.27;;
10529;SDS011;5313;48.834;9.228;2023-07-29T02:26:57;2.23;;;1.50;;
10529;SDS011;5313;48.834;9.228;2023-07-29T02:29:22;2.60;;;1.43;;
10529;SDS011;5313;48.834;9.228;2023-07-29T02:31:48;2.70;;;1.50;;
10529;SDS011;5313;48.834;9.228;2023-07-29T02:34:13;1.80;;;1.60;;
10529;SDS011;5313;48.834;9.228;2023-07-29T02:36:39;1.33;;;1.20;;
10529;SDS011;5313;48.834;9.228;2023-07-29T02:39:04;2.73;;;1.50;;
10529;SDS011;5313;48.834;9.228;2023-07-29T02:41:31;2.40;;;1.83;;
10529;SDS011;5313;48.834;9.228;2023-07-29T02:43:56;2.77;;;1.43;;
10529;SDS011;5313;48.834;9.228;2023-07-29T02:46:22;3.63;;;1.60;;
10529;SDS011;5313;48.834;9.228;2023-07-29T02:48:47;3.13;;;1.53;;
10529;SDS011;5313;48.834;9.228;2023-07-29T02:51:13;2.43;;;1.40;;
10529;SDS011;5313;48.834;9.228;2023-07-29T02:53:38;4.03;;;2.30;;
10529;SDS011;5313;48.834;9.228;2023-07-29T02:56:04;2.10;;;1.27;;
10529;SDS011;5313;48.834;9.228;2023-07-29T02:58:31;2.30;;;1.70;;
10529;SDS011;5313;48.834;9.228;2023-07-29T03:01:03;1.87;;;1.60;;
10529;SDS011;5313;48.834;9.228;2023-07-29T03:03:30;2.93;;;1.70;;
10529;SDS011;5313;48.834;9.228;2023-07-29T03:06:02;2.60;;;1.50;;
10529;SDS011;5313;48.834;9.228;2023-07-29T03:08:29;2.43;;;1.50;;
10529;SDS011;5313;48.834;9.228;2023-07-29T03:10:55;2.47;;;1.60;;
10529;SDS011;5313;48.834;9.228;2023-07-29T03:13:21;2.43;;;1.47;;
10529;SDS011;5313;48.834;9.228;2023-07-29T03:15:47;3.37;;;1.63;;
10529;SDS011;5313;48.834;9.228;2023-07-29T03:18:12;1.87;;;1.67;;
10529;SDS011;5313;48.834;9.228;2023-07-29T03:20:38;2.47;;;1.87;;
10529;SDS011;5313;48.834;9.228;2023-07-29T03:23:03;3.30;;;1.77;;
10529;SDS011;5313;48.834;9.228;2023-07-29T03:25:29;4.60;;;1.60;;
10529;SDS011;5313;48.834;9.228;2023-07-29T03:27:54;3.17;;;1.87;;
10529;SDS011;5313;48.834;9.228;2023-07-29T03:30:20;2.20;;;1.60;;
10529;SDS011;5313;48.834;9.228;2023-07-29T03:32:47;2.57;;;1.67;;
10529;SDS011;5313;48.834;9.228;2023-07-29T03:35:14;3.87;;;1.70;;
10529;SDS011;5313;48.834;9.228;2023-07-29T03:37:39;4.17;;;1.60;;
10529;SDS011;5313;48.834;9.228;2023-07-29T03:40:06;3.50;;;1.70;;
10529;SDS011;5313;48.834;9.228;2023-07-29T03:42:32;2.60;;;1.87;;
10529;SDS011;5313;48.834;9.228;2023-07-29T03:44:58;3.70;;;1.80;;
10529;SDS011;5313;48.834;9.228;2023-07-29T03:47:23;2.37;;;1.93;;
10529;SDS011;5313;48.834;9.228;2023-07-29T03:49:49;2.87;;;2.20;;
10529;SDS011;5313;48.834;9.228;2023-07-29T03:52:15;2.53;;;1.93;;
10529;SDS011;5313;48.834;9.228;2023-07-29T03:54:40;4.53;;;2.27;;
10529;SDS011;5313;48.834;9.228;2023-07-29T03:57:06;2.60;;;1.80;;
10529;SDS011;5313;48.834;9.228;2023-07-29T03:59:31;2.50;;;1.70;;
10529;SDS011;5313;48.834;9.228;2023-07-29T04:01:57;3.10;;;1.70;;
10529;SDS011;5313;48.834;9.228;2023-07-29T04:04:23;3.80;;;2.00;;
10529;SDS011;5313;48.834;9.228;2023-07-29T04:06:48;2.43;;;1.73;;
10529;SDS011;5313;48.834;9.228;2023-07-29T04:09:14;2.20;;;1.90;;
10529;SDS011;5313;48.834;9.228;2023-07-29T04:11:39;2.67;;;2.10;;
10529;SDS011;5313;48.834;9.228;2023-07-29T04:14:05;4.30;;;2.03;;
10529;SDS011;5313;48.834;9.228;2023-07-29T04:16:30;5.40;;;2.37;;
10529;SDS011;5313;48.834;9.228;2023-07-29T04:18:56;6.30;;;2.50;;
10529;SDS011;5313;48.834;9.228;2023-07-29T04:21:21;4.60;;;2.17;;
10529;SDS011;5313;48.834;9.228;2023-07-29T04:23:47;3.30;;;2.00;;
10529;SDS011;5313;48.834;9.228;2023-07-29T04:26:12;3.20;;;2.17;;
10529;SDS011;5313;48.834;9.228;2023-07-29T04:28:38;2.77;;;2.30;;
10529;SDS011;5313;48.834;9.228;2023-07-29T04:31:03;3.40;;;2.30;;
10529;SDS011;5313;48.834;9.228;2023-07-29T04:33:29;3.27;;;2.27;;
10529;SDS011;5313;48.834;9.228;2023-07-29T04:35:55;2.90;;;2.30;;
10529;SDS011;5313;48.834;9.228;2023-07-29T04:38:21;3.67;;;2.50;;
10529;SDS011;5313;48.834;9.228;2023-07-29T04:40:48;2.43;;;2.23;;
10529;SDS011;5313;48.834;9.228;2023-07-29T04:43:14;2.43;;;2.23;;
10529;SDS011;5313;48.834;9.228;2023-07-29T04:45:43;4.07;;;2.20;;
10529;SDS011;5313;48.834;9.228;2023-07-29T04:48:09;3.40;;;2.40;;
10529;SDS011;5313;48.834;9.228;2023-07-29T04:50:34;4.27;;;2.40;;
10529;SDS011;5313;48.834;9.228;2023-07-29T04:52:59;4.63;;;2.63;;
10529;SDS011;5313;48.834;9.228;2023-07-29T04:55:25;7.83;;;2.80;;
10529;SDS011;5313;48.834;9.228;2023-07-29T04:57:51;4.43;;;2.90;;
10529;SDS011;5313;48.834;9.228;2023-07-29T05:00:16;3.27;;;2.43;;
10529;SDS011;5313;48.834;9.228;2023-07-29T05:02:42;5.70;;;3.03;;
10529;SDS011;5313;48.834;9.228;2023-07-29T05:05:08;5.20;;;3.10;;
10529;SDS011;5313;48.834;9.228;2023-07-29T05:07:33;3.37;;;2.87;;
10529;SDS011;5313;48.834;9.228;2023-07-29T05:09:59;4.73;;;2.77;;
10529;SDS011;5313;48.834;9.228;2023-07-29T05:12:24;4.00;;;2.70;;
10529;SDS011;5313;48.834;9.228;2023-07-29T05:14:50;3.83;;;2.60;;
10529;SDS011;5313;48.834;9.228;2023-07-29T05:17:16;3.83;;;2.87;;
10529;SDS011;5313;48.834;9.228;2023-07-29T05:19:41;3.57;;;2.43;;
10529;SDS011;5313;48.834;9.228;2023-07-29T05:22:07;5.57;;;2.70;;
10529;SDS011;5313;48.834;9.228;2023-07-29T05:24:32;3.60;;;2.60;;
10529;SDS011;5313;48.834;9.228;2023-07-29T05:26:58;3.60;;;2.60;;
10529;SDS011;5313;48.834;9.228;2023-07-29T05:29:23;3.43;;;2.60;;
10529;SDS011;5313;48.834;9.228;2023-07-29T05:31:49;5.90;;;2.80;;
10529;SDS011;5313;48.834;9.228;2023-07-29T05:34:14;3.37;;;2.13;;
10529;SDS011;5313;48.834;9.228;2023-07-29T05:36:40;3.20;;;2.67;;
10529;SDS011;5313;48.834;9.228;2023-07-29T05:39:06;3.80;;;2.50;;
10529;SDS011;5313;48.834;9.228;2023-07-29T05:41:32;4.00;;;2.50;;
10529;SDS011;5313;48.834;9.228;2023-07-29T05:43:57;2.83;;;2.23;;
10529;SDS011;5313;48.834;9.228;2023-07-29T05:46:23;5.17;;;2.13;;
10529;SDS011;5313;48.834;9.228;2023-07-29T05:48:48;4.37;;;2.30;;
10529;SDS011;5313;48.834;9.228;2023-07-29T05:51:14;3.97;;;2.10;;
10529;SDS011;5313;48.834;9.228;2023-07-29T05:53:39;3.23;;;2.20;;
10529;SDS011;5313;48.834;9.228;2023-07-29T05:56:05;3.77;;;2.60;;
10529;SDS011;5313;48.834;9.228;2023-07-29T05:58:30;3.47;;;2.17;;
10529;SDS011;5313;48.834;9.228;2023-07-29T06:00:56;2.40;;;2.20;;
10529;SDS011;5313;48.834;9.228;2023-07-29T06:03:22;3.70;;;2.30;;
10529;SDS011;5313;48.834;9.228;2023-07-29T06:05:48;2.97;;;2.50;;
10529;SDS011;5313;48.834;9.228;2023-07-29T06:08:14;3.30;;;2.30;;
10529;SDS011;5313;48.834;9.228;2023-07-29T06:10:39;5.00;;;2.40;;
10529;SDS011;5313;48.834;9.228;2023-07-29T06:13:05;2.50;;;1.97;;
10529;SDS011;5313;48.834;9.228;2023-07-29T06:15:31;2.30;;;1.97;;
10529;SDS011;5313;48.834;9.228;2023-07-29T06:17:56;4.67;;;2.10;;
10529;SDS011;5313;48.834;9.228;2023-07-29T06:20:22;3.13;;;2.63;;
10529;SDS011;5313;48.834;9.228;2023-07-29T06:22:47;4.30;;;2.20;;
10529;SDS011;5313;48.834;9.228;2023-07-29T06:25:13;5.80;;;2.07;;
10529;SDS011;5313;48.834;9.228;2023-07-29T06:27:38;5.13;;;2.20;;
10529;SDS011;5313;48.834;9.228;2023-07-29T06:30:04;2.40;;;1.87;;
10529;SDS011;5313;48.834;9.228;2023-07-29T06:32:31;2.53;;;1.80;;
10529;SDS011;5313;48.834;9.228;2023-07-29T06:34:56;3.63;;;1.53;;
10529;SDS011;5313;48.834;9.228;2023-07-29T06:37:22;5.27;;;2.17;;
10529;SDS011;5313;48.834;9.228;2023-07-29T06:39:47;3.83;;;2.00;;
10529;SDS011;5313;48.834;9.228;2023-07-29T06:42:13;3.30;;;2.10;;
10529;SDS011;5313;48.834;9.228;2023-07-29T06:44:39;4.47;;;2.10;;
10529;SDS011;5313;48.834;9.228;2023-07-29T06:47:05;3.40;;;2.40;;
10529;SDS011;5313;48.834;9.228;2023-07-29T06:49:30;3.30;;;2.37;;
10529;SDS011;5313;48.834;9.228;2023-07-29T06:51:56;3.17;;;2.10;;
10529;SDS011;5313;48.834;9.228;2023-07-29T06:54:25;3.40;;;2.33;;
10529;SDS011;5313;48.834;9.228;2023-07-29T06:56:53;6.73;;;2.80;;
10529;SDS011;5313;48.834;9.228;2023-07-29T06:59:19;4.00;;;2.13;;
10529;SDS011;5313;48.834;9.228;2023-07-29T07:01:44;2.57;;;2.20;;
10529;SDS011;5313;48.834;9.228;2023-07-29T07:04:11;2.97;;;2.17;;
10529;SDS011;5313;48.834;9.228;2023-07-29T07:06:37;2.97;;;2.30;;
10529;SDS011;5313;48.834;9.228;2023-07-29T07:09:02;3.67;;;2.20;;
10529;SDS011;5313;48.834;9.228;2023-07-29T07:11:28;2.97;;;2.40;;
10529;SDS011;5313;48.834;9.228;2023-07-29T07:13:53;4.83;;;2.40;;
10529;SDS011;5313;48.834;9.228;2023-07-29T07:16:19;2.77;;;2.20;;
10529;SDS011;5313;48.834;9.228;2023-07-29T07:18:44;3.43;;;2.30;;
10529;SDS011;5313;48.834;9.228;2023-07-29T07:21:10;2.77;;;2.40;;
10529;SDS011;5313;48.834;9.228;2023-07-29T07:23:36;3.53;;;2.37;;
10529;SDS011;5313;48.834;9.228;2023-07-29T07:26:01;5.97;;;2.53;;
10529;SDS011;5313;48.834;9.228;2023-07-29T07:28:27;4.87;;;2.47;;
10529;SDS011;5313;48.834;9.228;2023-07-29T07:30:53;3.83;;;2.73;;
10529;SDS011;5313;48.834;9.228;2023-07-29T07:33:20;4.43;;;2.27;;
10529;SDS011;5313;48.834;9.228;2023-07-29T07:35:46;2.60;;;2.30;;
10529;SDS011;5313;48.834;9.228;2023-07-29T07:38:12;5.73;;;2.87;;
10529;SDS011;5313;48.834;9.228;2023-07-29T07:40:37;4.90;;;2.60;;
10529;SDS011;5313;48.834;9.228;2023-07-29T07:43:03;5.10;;;2.53;;
10529;SDS011;5313;48.834;9.228;2023-07-29T07:45:28;4.50;;;2.20;;
10529;SDS011;5313;48.834;9.228;2023-07-29T07:47:54;2.10;;;1.90;;
10529;SDS011;5313;48.834;9.228;2023-07-29T07:50:19;3.87;;;2.00;;
10529;SDS011;5313;48.834;9.228;2023-07-29T07:52:45;3.00;;;1.50;;
10529;SDS011;5313;48.834;9.228;2023-07-29T07:55:11;3.40;;;2.10;;
10529;SDS011;5313;48.834;9.228;2023-07-29T07:57:36;5.90;;;1.70;;
10529;SDS011;5313;48.834;9.228;2023-07-29T08:00:02;3.33;;;1.97;;
10529;SDS011;5313;48.834;9.228;2023-07-29T08:02:29;2.47;;;1.97;;
10529;SDS011;5313;48.834;9.228;2023-07-29T08:04:55;1.90;;;1.40;;
10529;SDS011;5313;48.834;9.228;2023-07-29T08:07:20;2.90;;;1.60;;
10529;SDS011;5313;48.834;9.228;2023-07-29T08:09:46;2.27;;;1.57;;
10529;SDS011;5313;48.834;9.228;2023-07-29T08:12:11;2.57;;;1.70;;
10529;SDS011;5313;48.834;9.228;2023-07-29T08:14:37;2.00;;;1.50;;
10529;SDS011;5313;48.834;9.228;2023-07-29T08:17:02;3.17;;;1.50;;
10529;SDS011;5313;48.834;9.228;2023-07-29T08:19:28;2.73;;;1.50;;
10529;SDS011;5313;48.834;9.228;2023-07-29T08:21:54;2.63;;;1.50;;
10529;SDS011;5313;48.834;9.228;2023-07-29T08:24:19;3.33;;;1.77;;
10529;SDS011;5313;48.834;9.228;2023-07-29T08:26:44;4.00;;;1.50;;
10529;SDS011;5313;48.834;9.228;2023-07-29T08:29:10;2.03;;;1.57;;
10529;SDS011;5313;48.834;9.228;2023-07-29T08:31:37;1.87;;;1.50;;
10529;SDS011;5313;48.834;9.228;2023-07-29T08:34:02;2.10;;;1.70;;
10529;SDS011;5313;48.834;9.228;2023-07-29T08:36:28;2.67;;;1.80;;
10529;SDS011;5313;48.834;9.228;2023-07-29T08:38:53;2.53;;;1.60;;
10529;SDS011;5313;48.834;9.228;2023-07-29T08:41:20;5.30;;;1.77;;
10529;SDS011;5313;48.834;9.228;2023-07-29T08:43:52;2.13;;;1.40;;
10529;SDS011;5313;48.834;9.228;2023-07-29T08:46:26;3.67;;;1.50;;
10529;SDS011;5313;48.834;9.228;2023-07-29T08:48:53;2.70;;;1.30;;
10529;SDS011;5313;48.834;9.228;2023-07-29T08:51:19;3.10;;;1.33;;
10529;SDS011;5313;48.834;9.228;2023-07-29T08:53:48;1.50;;;1.40;;
10529;SDS011;5313;48.834;9.228;2023-07-29T08:56:14;2.60;;;1.50;;
10529;SDS011;5313;48.834;9.228;2023-07-29T08:58:40;1.73;;;1.17;;
10529;SDS011;5313;48.834;9.228;2023-07-29T09:01:06;2.27;;;1.30;;
10529;SDS011;5313;48.834;9.228;2023-07-29T09:03:32;1.83;;;1.00;;
10529;SDS011;5313;48.834;9.228;2023-07-29T09:05:58;3.03;;;1.20;;
10529;SDS011;5313;48.834;9.228;2023-07-29T09:08:25;1.57;;;1.13;;
10529;SDS011;5313;48.834;9.228;2023-07-29T09:10:51;1.80;;;1.40;;
10529;SDS011;5313;48.834;9.228;2023-07-29T09:13:17;2.17;;;1.63;;
10529;SDS011;5313;48.834;9.228;2023-07-29T09:15:42;1.20;;;0.93;;
10529;SDS011;5313;48.834;9.228;2023-07-29T09:18:12;2.87;;;1.20;;
10529;SDS011;5313;48.834;9.228;2023-07-29T09:20:41;1.77;;;1.30;;
10529;SDS011;5313;48.834;9.228;2023-07-29T09:23:07;1.90;;;1.10;;
10529;SDS011;5313;48.834;9.228;2023-07-29T09:25:36;1.17;;;1.00;;
10529;SDS011;5313;48.834;9.228;2023-07-29T09:28:07;1.23;;;1.10;;
10529;SDS011;5313;48.834;9.228;2023-07-29T09:30:33;1.93;;;1.20;;
10529;SDS011;5313;48.834;9.228;2023-07-29T09:32:59;3.63;;;0.90;;
10529;SDS011;5313;48.834;9.228;2023-07-29T09:35:25;1.50;;;0.90;;
10529;SDS011;5313;48.834;9.228;2023-07-29T09:37:53;2.27;;;0.93;;
10529;SDS011;5313;48.834;9.228;2023-07-29T09:40:18;2.33;;;1.03;;
10529;SDS011;5313;48.834;9.228;2023-07-29T09:42:48;1.33;;;1.00;;
10529;SDS011;5313;48.834;9.228;2023-07-29T09:45:19;1.23;;;0.90;;
10529;SDS011;5313;48.834;9.228;2023-07-29T09:47:48;1.40;;;1.00;;
10529;SDS011;5313;48.834;9.228;2023-07-29T09:50:15;2.30;;;1.20;;
10529;SDS011;5313;48.834;9.228;2023-07-29T09:52:41;1.30;;;1.00;;
10529;SDS011;5313;48.834;9.228;2023-07-29T09:55:07;1.50;;;1.10;;
10529;SDS011;5313;48.834;9.228;2023-07-29T09:57:34;1.90;;;1.00;;
10529;SDS011;5313;48.834;9.228;2023-07-29T10:00:01;2.73;;;1.10;;
10529;SDS011;5313;48.834;9.228;2023-07-29T10:02:30;2.10;;;1.20;;
10529;SDS011;5313;48.834;9.228;2023-07-29T10:04:56;1.30;;;1.10;;
10529;SDS011;5313;48.834;9.228;2023-07-29T10:07:23;1.10;;;1.00;;
10529;SDS011;5313;48.834;9.228;2023-07-29T10:09:50;5.33;;;1.30;;
10529;SDS011;5313;48.834;9.228;2023-07-29T10:12:17;1.97;;;1.30;;
10529;SDS011;5313;48.834;9.228;2023-07-29T10:14:43;2.20;;;1.00;;
10529;SDS011;5313;48.834;9.228;2023-07-29T10:17:11;1.40;;;1.20;;
10529;SDS011;5313;48.834;9.228;2023-07-29T10:19:38;1.13;;;1.00;;
10529;SDS011;5313;48.834;9.228;2023-07-29T10:22:04;1.83;;;1.20;;
10529;SDS011;5313;48.834;9.228;2023-07-29T10:24:32;3.03;;;1.03;;
10529;SDS011;5313;48.834;9.228;2023-07-29T10:26:59;1.20;;;1.10;;
10529;SDS011;5313;48.834;9.228;2023-07-29T10:29:28;2.33;;;0.90;;
10529;SDS011;5313;48.834;9.228;2023-07-29T10:32:01;3.47;;;1.00;;
10529;SDS011;5313;48.834;9.228;2023-07-29T10:34:27;0.70;;;0.70;;
10529;SDS011;5313;48.834;9.228;2023-07-29T10:36:53;0.70;;;0.70;;
10529;SDS011;5313;48.834;9.228;2023-07-29T10:39:19;1.27;;;0.83;;
10529;SDS011;5313;48.834;9.228;2023-07-29T10:47:11;1.10;;;0.90;;
10529;SDS011;5313;48.834;9.228;2023-07-29T10:49:40;0.80;;;0.80;;
10529;SDS011;5313;48.834;9.228;2023-07-29T10:52:06;1.23;;;0.90;;
10529;SDS011;5313;48.834;9.228;2023-07-29T10:54:36;1.13;;;0.80;;
10529;SDS011;5313;48.834;9.228;2023-07-29T10:57:14;1.17;;;0.87;;
10529;SDS011;5313;48.834;9.228;2023-07-29T10:59:40;0.97;;;0.90;;
10529;SDS011;5313;48.834;9.228;2023-07-29T11:02:15;1.10;;;1.00;;
10529;SDS011;5313;48.834;9.228;2023-07-29T11:04:46;1.37;;;0.90;;
10529;SDS011;5313;48.834;9.228;2023-07-29T11:20:22;1.20;;;0.90;;
10529;SDS011;5313;48.834;9.228;2023-07-29T11:22:55;1.00;;;0.90;;
10529;SDS011;5313;48.834;9.228;2023-07-29T11:25:23;4.10;;;1.17;;
10529;SDS011;5313;48.834;9.228;2023-07-29T11:27:53;1.20;;;1.00;;
10529;SDS011;5313;48.834;9.228;2023-07-29T11:30:19;1.20;;;0.90;;
10529;SDS011;5313;48.834;9.228;2023-07-29T11:32:45;0.80;;;0.80;;
10529;SDS011;5313;48.834;9.228;2023-07-29T11:37:43;1.20;;;1.10;;
10529;SDS011;5313;48.834;9.228;2023-07-29T11:40:13;1.00;;;0.90;;
10529;SDS011;5313;48.834;9.228;2023-07-29T11:42:42;0.90;;;0.80;;
10529;SDS011;5313;48.834;9.228;2023-07-29T11:45:08;1.33;;;1.10;;
10529;SDS011;5313;48.834;9.228;2023-07-29T11:47:35;1.00;;;0.90;;
10529;SDS011;5313;48.834;9.228;2023-07-29T11:50:02;1.63;;;0.90;;
10529;SDS011;5313;48.834;9.228;2023-07-29T11:52:29;2.60;;;1.10;;
10529;SDS011;5313;48.834;9.228;2023-07-29T11:54:57;1.37;;;0.87;;
10529;SDS011;5313;48.834;9.228;2023-07-29T11:57:23;1.27;;;1.13;;
10529;SDS011;5313;48.834;9.228;2023-07-29T11:59:49;1.10;;;1.00;;
10529;SDS011;5313;48.834;9.228;2023-07-29T12:02:15;1.40;;;1.20;;
10529;SDS011;5313;48.834;9.228;2023-07-29T12:04:43;1.10;;;0.83;;
10529;SDS011;5313;48.834;9.228;2023-07-29T12:07:11;2.33;;;1.00;;
10529;SDS011;5313;48.834;9.228;2023-07-29T12:09:38;1.20;;;1.10;;
10529;SDS011;5313;48.834;9.228;2023-07-29T12:12:04;1.63;;;1.33;;
10529;SDS011;5313;48.834;9.228;2023-07-29T12:14:31;1.20;;;1.00;;
10529;SDS011;5313;48.834;9.228;2023-07-29T12:16:59;2.17;;;1.13;;
10529;SDS011;5313;48.834;9.228;2023-07-29T12:19:30;1.27;;;1.10;;
10529;SDS011;5313;48.834;9.228;2023-07-29T12:22:00;1.42;;;1.23;;
10529;SDS011;5313;48.834;9.228;2023-07-29T12:24:30;2.00;;;1.20;;
10529;SDS011;5313;48.834;9.228;2023-07-29T12:26:56;1.23;;;1.13;;
10529;SDS011;5313;48.834;9.228;2023-07-29T12:29:22;1.65;;;1.10;;
10529;SDS011;5313;48.834;9.228;2023-07-29T12:31:48;1.40;;;1.10;;
10529;SDS011;5313;48.834;9.228;2023-07-29T12:34:20;4.78;;;4.32;;
10529;SDS011;5313;48.834;9.228;2023-07-29T12:36:48;2.13;;;1.67;;
10529;SDS011;5313;48.834;9.228;2023-07-29T12:39:16;3.83;;;1.63;;
10529;SDS011;5313;48.834;9.228;2023-07-29T12:41:42;2.00;;;1.38;;
10529;SDS011;5313;48.834;9.228;2023-07-29T12:44:08;1.90;;;1.50;;
10529;SDS011;5313;48.834;9.228;2023-07-29T12:46:33;2.03;;;1.73;;
10529;SDS011;5313;48.834;9.228;2023-07-29T12:48:59;1.70;;;1.40;;
10529;SDS011;5313;48.834;9.228;2023-07-29T12:51:24;1.25;;;1.15;;
10529;SDS011;5313;48.834;9.228;2023-07-29T12:53:50;1.70;;;1.55;;
10529;SDS011;5313;48.834;9.228;2023-07-29T12:56:15;1.50;;;1.30;;
10529;SDS011;5313;48.834;9.228;2023-07-29T12:58:41;1.67;;;1.50;;
10529;SDS011;5313;48.834;9.228;2023-07-29T13:01:06;1.40;;;1.10;;
10529;SDS011;5313;48.834;9.228;2023-07-29T13:03:32;1.60;;;1.10;;
10529;SDS011;5313;48.834;9.228;2023-07-29T13:05:57;3.05;;;1.27;;
10529;SDS011;5313;48.834;9.228;2023-07-29T13:08:23;2.55;;;1.10;;
10529;SDS011;5313;48.834;9.228;2023-07-29T13:10:48;1.90;;;1.30;;
10529;SDS011;5313;48.834;9.228;2023-07-29T13:13:14;1.20;;;1.10;;
10529;SDS011;5313;48.834;9.228;2023-07-29T13:15:39;1.45;;;1.20;;
10529;SDS011;5313;48.834;9.228;2023-07-29T13:18:06;2.05;;;1.23;;
10529;SDS011;5313;48.834;9.228;2023-07-29T13:20:31;1.20;;;1.10;;
10529;SDS011;5313;48.834;9.228;2023-07-29T13:22:58;1.67;;;1.30;;
10529;SDS011;5313;48.834;9.228;2023-07-29T13:25:24;1.52;;;1.23;;
10529;SDS011;5313;48.834;9.228;2023-07-29T13:27:49;1.73;;;1.25;;
10529;SDS011;5313;48.834;9.228;2023-07-29T13:30:15;1.33;;;1.20;;
10529;SDS011;5313;48.834;9.228;2023-07-29T13:32:40;1.73;;;1.38;;
10529;SDS011;5313;48.834;9.228;2023-07-29T13:35:06;1.30;;;1.20;;
10529;SDS011;5313;48.834;9.228;2023-07-29T13:37:32;1.40;;;1.30;;
10529;SDS011;5313;48.834;9.228;2023-07-29T13:39:57;1.92;;;1.25;;
10529;SDS011;5313;48.834;9.228;2023-07-29T13:42:23;2.15;;;1.25;;
10529;SDS011;5313;48.834;9.228;2023-07-29T13:44:48;1.50;;;1.30;;
10529;SDS011;5313;48.834;9.228;2023-07-29T13:47:13;2.13;;;1.10;;
10529;SDS011;5313;48.834;9.228;2023-07-29T13:49:39;1.20;;;1.10;;
10529;SDS011;5313;48.834;9.228;2023-07-29T13:52:05;1.85;;;1.55;;
10529;SDS011;5313;48.834;9.228;2023-07-29T13:54:31;1.60;;;1.40;;
10529;SDS011;5313;48.834;9.228;2023-07-29T13:56:57;3.90;;;1.42;;
10529;SDS011;5313;48.834;9.228;2023-07-29T13:59:23;1.58;;;1.30;;
10529;SDS011;5313;48.834;9.228;2023-07-29T14:01:48;1.37;;;1.27;;
10529;SDS011;5313;48.834;9.228;2023-07-29T14:04:14;1.70;;;1.40;;
10529;SDS011;5313;48.834;9.228;2023-07-29T14:06:39;2.10;;;1.20;;
10529;SDS011;5313;48.834;9.228;2023-07-29T14:09:05;1.87;;;1.50;;
10529;SDS011;5313;48.834;9.228;2023-07-29T14:11:30;1.60;;;1.33;;
10529;SDS011;5313;48.834;9.228;2023-07-29T14:13:56;1.63;;;1.43;;
10529;SDS011;5313;48.834;9.228;2023-07-29T14:16:21;1.80;;;1.30;;
10529;SDS011;5313;48.834;9.228;2023-07-29T14:18:47;1.30;;;1.20;;
10529;SDS011;5313;48.834;9.228;2023-07-29T14:21:12;3.90;;;2.42;;
10529;SDS011;5313;48.834;9.228;2023-07-29T14:23:38;1.30;;;1.20;;
10529;SDS011;5313;48.834;9.228;2023-07-29T14:26:03;2.15;;;1.70;;
10529;SDS011;5313;48.834;9.228;2023-07-29T14:28:29;1.50;;;1.35;;
10529;SDS011;5313;48.834;9.228;2023-07-29T14:30:55;1.40;;;1.30;;
10529;SDS011;5313;48.834;9.228;2023-07-29T14:33:20;1.80;;;1.25;;
10529;SDS011;5313;48.834;9.228;2023-07-29T14:35:46;2.45;;;1.58;;
10529;SDS011;5313;48.834;9.228;2023-07-29T14:38:11;1.60;;;1.40;;
10529;SDS011;5313;48.834;9.228;2023-07-29T14:40:37;1.50;;;1.40;;
10529;SDS011;5313;48.834;9.228;2023-07-29T14:43:02;1.48;;;1.30;;
10529;SDS011;5313;48.834;9.228;2023-07-29T14:45:28;1.90;;;1.70;;
10529;SDS011;5313;48.834;9.228;2023-07-29T14:47:53;2.78;;;1.35;;
10529;SDS011;5313;48.834;9.228;2023-07-29T14:50:19;2.23;;;1.67;;
10529;SDS011;5313;48.834;9.228;2023-07-29T14:52:44;1.93;;;1.23;;
10529;SDS011;5313;48.834;9.228;2023-07-29T14:55:10;1.60;;;1.25;;
10529;SDS011;5313;48.834;9.228;2023-07-29T14:57:35;1.55;;;1.40;;
10529;SDS011;5313;48.834;9.228;2023-07-29T15:00:01;5.15;;;1.63;;
10529;SDS011;5313;48.834;9.228;2023-07-29T15:02:28;3.65;;;2.10;;
10529;SDS011;5313;48.834;9.228;2023-07-29T15:04:54;1.67;;;1.55;;
10529;SDS011;5313;48.834;9.228;2023-07-29T15:07:20;1.42;;;1.33;;
10529;SDS011;5313;48.834;9.228;2023-07-29T15:09:45;1.73;;;1.10;;
10529;SDS011;5313;48.834;9.228;2023-07-29T15:12:11;2.03;;;1.73;;
10529;SDS011;5313;48.834;9.228;2023-07-29T15:14:36;4.00;;;1.40;;
10529;SDS011;5313;48.834;9.228;2023-07-29T15:17:02;1.70;;;1.42;;
10529;SDS011;5313;48.834;9.228;2023-07-29T15:19:28;1.70;;;1.40;;